createdAt,value
2019-05-01T00:02:04.786Z,25.93
2019-05-01T00:05:01.815Z,27.57
2019-05-01T00:07:36.428Z,25.83
2019-05-01T00:10:07.806Z,26.60
2019-05-01T00:12:37.092Z,28.17
2019-05-01T00:15:07.157Z,24.80
2019-05-01T00:17:37.357Z,25.40
2019-05-01T00:20:06.877Z,26.47
2019-05-01T00:22:36.205Z,25.07
2019-05-01T00:25:06.157Z,31.03
2019-05-01T00:27:35.449Z,25.67
2019-05-01T00:30:07.709Z,27.37
2019-05-01T00:32:37.005Z,25.90
2019-05-01T00:35:06.324Z,27.53
2019-05-01T00:37:35.646Z,27.90
2019-05-01T00:40:05.277Z,25.90
2019-05-01T00:42:34.624Z,26.93
2019-05-01T00:45:03.944Z,26.10
2019-05-01T00:47:33.306Z,27.87
2019-05-01T00:50:02.593Z,28.23
2019-05-01T00:52:32.634Z,30.10
2019-05-01T00:55:19.545Z,27.60
2019-05-01T00:57:56.281Z,28.20
2019-05-01T01:00:43.093Z,29.93
2019-05-01T01:03:11.567Z,29.63
2019-05-01T01:05:40.925Z,26.77
2019-05-01T01:08:10.215Z,31.60
2019-05-01T01:10:39.643Z,28.30
2019-05-01T01:13:08.932Z,28.20
2019-05-01T01:15:38.313Z,27.87
2019-05-01T01:18:07.607Z,30.20
2019-05-01T01:20:36.961Z,33.37
2019-05-01T01:23:06.259Z,31.00
2019-05-01T01:25:35.562Z,30.37
2019-05-01T01:28:04.909Z,36.83
2019-05-01T01:30:34.609Z,31.60
2019-05-01T01:33:03.951Z,34.07
2019-05-01T01:35:33.240Z,31.97
2019-05-01T01:38:03.128Z,28.33
2019-05-01T01:40:32.487Z,30.57
2019-05-01T01:43:21.010Z,29.63
2019-05-01T01:45:52.405Z,29.37
2019-05-01T01:48:22.145Z,31.73
2019-05-01T01:50:51.896Z,29.50
2019-05-01T01:53:22.592Z,33.93
2019-05-01T01:55:52.396Z,30.80
2019-05-01T01:58:23.609Z,29.37
2019-05-01T02:01:15.180Z,31.20
2019-05-01T02:03:48.421Z,28.47
2019-05-01T02:06:18.721Z,30.67
2019-05-01T02:08:56.390Z,29.73
2019-05-01T02:11:20.050Z,29.27
2019-05-01T02:13:50.269Z,32.13
2019-05-01T02:16:19.585Z,29.53
2019-05-01T02:18:48.913Z,31.07
2019-05-01T02:21:18.190Z,29.73
2019-05-01T02:23:47.549Z,31.53
2019-05-01T02:26:19.673Z,30.10
2019-05-01T02:29:02.990Z,30.77
2019-05-01T02:31:39.635Z,29.73
2019-05-01T02:34:10.108Z,30.07
2019-05-01T02:36:41.906Z,28.70
2019-05-01T02:39:12.640Z,30.97
2019-05-01T02:41:44.477Z,30.90
2019-05-01T02:44:20.706Z,30.57
2019-05-01T02:46:51.852Z,29.63
2019-05-01T02:49:39.499Z,29.47
2019-05-01T02:52:12.148Z,30.33
2019-05-01T02:54:44.899Z,28.87
2019-05-01T02:57:18.307Z,30.17
2019-05-01T02:59:51.586Z,30.10
2019-05-01T03:02:23.919Z,29.50
2019-05-01T03:04:54.884Z,29.63
2019-05-01T03:07:27.220Z,27.70
2019-05-01T03:09:57.149Z,28.60
2019-05-01T03:12:29.434Z,28.10
2019-05-01T03:15:01.657Z,32.20
2019-05-01T03:17:47.138Z,30.60
2019-05-01T03:20:45.527Z,27.87
2019-05-01T03:23:33.754Z,29.27
2019-05-01T03:26:03.447Z,28.97
2019-05-01T03:28:32.978Z,31.17
2019-05-01T03:31:02.970Z,28.60
2019-05-01T03:33:33.251Z,28.13
2019-05-01T03:36:02.656Z,28.47
2019-05-01T03:38:32.449Z,26.53
2019-05-01T03:41:03.335Z,27.70
2019-05-01T03:43:34.261Z,27.93
2019-05-01T03:46:04.051Z,26.87
2019-05-01T03:48:34.464Z,27.67
2019-05-01T03:51:03.880Z,27.27
2019-05-01T03:53:34.660Z,28.23
2019-05-01T03:56:03.990Z,26.77
2019-05-01T03:58:34.111Z,30.37
2019-05-01T04:01:25.572Z,27.47
2019-05-01T04:04:01.084Z,28.50
2019-05-01T04:06:31.880Z,30.03
2019-05-01T04:09:01.830Z,32.97
2019-05-01T04:11:31.698Z,31.00
2019-05-01T04:14:01.399Z,35.03
2019-05-01T04:16:31.137Z,32.90
2019-05-01T04:19:00.881Z,31.60
2019-05-01T04:21:35.300Z,30.63
2019-05-01T04:24:05.690Z,31.57
2019-05-01T04:26:35.390Z,33.03
2019-05-01T04:29:29.983Z,33.23
2019-05-01T04:32:11.475Z,29.83
2019-05-01T04:34:58.714Z,33.13
2019-05-01T04:37:29.327Z,31.13
2019-05-01T04:39:58.667Z,32.13
2019-05-01T04:42:28.653Z,31.53
2019-05-01T04:44:58.415Z,32.27
2019-05-01T04:47:27.794Z,29.77
2019-05-01T04:49:57.135Z,30.63
2019-05-01T04:52:26.815Z,31.77
2019-05-01T04:54:56.921Z,29.90
2019-05-01T04:57:27.011Z,29.90
2019-05-01T04:59:56.594Z,30.80
2019-05-01T05:02:49.195Z,31.20
2019-05-01T05:05:18.737Z,30.17
2019-05-01T05:07:48.109Z,31.40
2019-05-01T05:10:18.052Z,32.30
2019-05-01T05:13:01.581Z,33.00
2019-05-01T05:15:52.917Z,31.43
2019-05-01T05:18:22.653Z,31.43
2019-05-01T05:20:52.560Z,27.97
2019-05-01T05:23:22.309Z,30.57
2019-05-01T05:25:52.533Z,31.17
2019-05-01T05:28:24.392Z,29.80
2019-05-01T05:30:56.897Z,28.20
2019-05-01T05:33:28.789Z,27.60
2019-05-01T05:35:59.484Z,25.97
2019-05-01T05:38:46.409Z,25.07
2019-05-01T05:41:17.413Z,25.83
2019-05-01T05:43:47.563Z,26.23
2019-05-01T05:46:18.282Z,26.80
2019-05-01T05:48:47.782Z,29.93
2019-05-01T05:51:29.842Z,27.03
2019-05-01T05:54:09.186Z,28.70
2019-05-01T05:56:46.562Z,28.27
2019-05-01T05:59:21.685Z,26.00
2019-05-01T06:02:00.993Z,28.77
2019-05-01T06:04:50.240Z,29.50
2019-05-01T06:07:47.105Z,29.90
2019-05-01T06:10:24.585Z,29.70
2019-05-01T06:13:12.161Z,29.67
2019-05-01T06:15:57.665Z,27.00
2019-05-01T06:18:39.309Z,28.83
2019-05-01T06:21:34.634Z,29.57
2019-05-01T06:24:29.219Z,32.63
2019-05-01T06:26:59.170Z,33.03
2019-05-01T06:29:31.065Z,33.87
2019-05-01T06:32:00.337Z,36.60
2019-05-01T06:34:30.074Z,35.30
2019-05-01T06:37:00.217Z,35.30
2019-05-01T06:39:29.916Z,35.07
2019-05-01T06:41:59.642Z,33.73
2019-05-01T06:44:54.260Z,32.80
2019-05-01T06:47:55.345Z,34.33
2019-05-01T06:50:37.222Z,33.27
2019-05-01T06:53:07.622Z,31.87
2019-05-01T06:55:38.209Z,31.80
2019-05-01T06:58:07.971Z,32.40
2019-05-01T07:00:42.958Z,30.70
2019-05-01T07:03:11.687Z,33.53
2019-05-01T07:05:44.647Z,31.97
2019-05-01T07:08:24.449Z,34.43
2019-05-01T07:10:46.499Z,33.40
2019-05-01T07:13:15.861Z,33.73
2019-05-01T07:15:45.216Z,33.97
2019-05-01T07:18:18.673Z,31.77
2019-05-01T07:20:51.319Z,34.53
2019-05-01T07:23:22.848Z,36.77
2019-05-01T07:25:52.553Z,31.50
2019-05-01T07:28:23.249Z,32.33
2019-05-01T07:31:04.874Z,31.83
2019-05-01T07:33:33.344Z,30.23
2019-05-01T07:36:07.000Z,30.30
2019-05-01T07:38:38.310Z,29.73
2019-05-01T07:41:06.560Z,29.50
2019-05-01T07:43:59.580Z,27.50
2019-05-01T07:47:04.780Z,29.53
2019-05-01T07:49:52.634Z,27.73
2019-05-01T07:52:24.772Z,30.07
2019-05-01T07:54:56.586Z,29.30
2019-05-01T07:57:26.347Z,33.30
2019-05-01T07:59:58.225Z,28.63
2019-05-01T08:02:30.954Z,28.23
2019-05-01T08:04:58.362Z,26.73
2019-05-01T08:07:31.963Z,27.07
2019-05-01T08:09:58.932Z,24.67
2019-05-01T08:12:28.257Z,25.27
2019-05-01T08:14:57.608Z,25.50
2019-05-01T08:17:28.641Z,26.67
2019-05-01T08:20:03.304Z,23.07
2019-05-01T08:22:37.179Z,25.93
2019-05-01T08:25:08.110Z,26.77
2019-05-01T08:27:51.110Z,24.40
2019-05-01T08:30:42.782Z,24.23
2019-05-01T08:33:31.096Z,23.97
2019-05-01T08:36:00.469Z,24.77
2019-05-01T08:38:34.184Z,26.20
2019-05-01T08:41:00.890Z,25.43
2019-05-01T08:43:31.297Z,25.30
2019-05-01T08:46:19.585Z,25.13
2019-05-01T08:48:53.877Z,24.07
2019-05-01T08:51:23.267Z,24.53
2019-05-01T08:53:57.323Z,24.50
2019-05-01T08:56:23.766Z,24.83
2019-05-01T08:58:53.272Z,24.60
2019-05-01T09:01:22.576Z,23.87
2019-05-01T09:03:54.166Z,24.33
2019-05-01T09:06:34.211Z,23.47
2019-05-01T09:08:54.053Z,24.00
2019-05-01T09:11:23.349Z,23.87
2019-05-01T09:13:54.577Z,23.60
2019-05-01T09:16:28.419Z,24.43
2019-05-01T09:18:54.809Z,24.00
2019-05-01T09:21:24.095Z,25.17
2019-05-01T09:23:53.440Z,23.80
2019-05-01T09:26:36.462Z,23.67
2019-05-01T09:29:11.053Z,22.33
2019-05-01T09:31:41.128Z,24.80
2019-05-01T09:34:13.951Z,23.23
2019-05-01T09:36:41.963Z,23.07
2019-05-01T09:39:12.941Z,23.20
2019-05-01T09:41:43.209Z,25.20
2019-05-01T09:44:13.700Z,22.33
2019-05-01T09:46:43.451Z,22.13
2019-05-01T09:49:14.233Z,24.47
2019-05-01T09:52:23.505Z,22.13
2019-05-01T09:55:22.613Z,21.73
2019-05-01T09:57:48.847Z,22.17
2019-05-01T10:00:26.185Z,21.77
2019-05-01T10:02:55.544Z,21.13
2019-05-01T10:05:28.925Z,20.40
2019-05-01T10:08:00.046Z,22.93
2019-05-01T10:10:29.311Z,24.67
2019-05-01T10:12:58.122Z,22.03
2019-05-01T10:15:28.269Z,24.33
2019-05-01T10:17:57.549Z,24.23
2019-05-01T10:20:26.949Z,24.33
2019-05-01T10:22:56.320Z,22.73
2019-05-01T10:25:25.600Z,22.50
2019-05-01T10:28:00.609Z,22.67
2019-05-01T10:30:39.329Z,21.47
2019-05-01T10:33:13.793Z,23.03
2019-05-01T10:36:02.076Z,21.63
2019-05-01T10:38:39.946Z,22.43
2019-05-01T10:41:09.164Z,22.03
2019-05-01T10:43:38.137Z,19.47
2019-05-01T10:46:07.569Z,19.80
2019-05-01T10:48:37.002Z,21.43
2019-05-01T10:51:06.476Z,18.80
2019-05-01T10:53:35.762Z,21.57
2019-05-01T10:56:05.710Z,20.33
2019-05-01T10:58:35.073Z,20.53
2019-05-01T11:01:13.833Z,20.97
2019-05-01T11:03:43.113Z,19.67
2019-05-01T11:06:12.405Z,17.67
2019-05-01T11:08:41.761Z,18.87
2019-05-01T11:11:11.112Z,18.83
2019-05-01T11:13:40.397Z,17.17
2019-05-01T11:16:09.841Z,19.60
2019-05-01T11:18:39.125Z,18.23
2019-05-01T11:21:08.545Z,17.20
2019-05-01T11:23:37.917Z,17.47
2019-05-01T11:26:07.725Z,17.50
2019-05-01T11:28:37.089Z,18.93
2019-05-01T11:31:08.137Z,16.37
2019-05-01T11:33:55.258Z,16.20
2019-05-01T11:36:40.628Z,14.97
2019-05-01T11:39:48.072Z,15.70
2019-05-01T11:42:17.363Z,15.50
2019-05-01T11:44:46.745Z,14.90
2019-05-01T11:47:16.077Z,13.80
2019-05-01T11:49:45.866Z,14.10
2019-05-01T11:52:15.210Z,13.70
2019-05-01T11:54:44.565Z,13.53
2019-05-01T11:57:13.841Z,12.10
2019-05-01T11:59:43.186Z,11.77
2019-05-01T12:02:12.537Z,13.00
2019-05-01T12:04:41.978Z,13.87
2019-05-01T12:07:11.317Z,14.53
2019-05-01T12:09:40.601Z,14.03
2019-05-01T12:12:12.441Z,14.30
2019-05-01T12:14:41.746Z,15.77
2019-05-01T12:17:38.828Z,13.87
2019-05-01T12:20:08.429Z,14.20
2019-05-01T12:22:37.768Z,16.07
2019-05-01T12:25:07.461Z,16.57
2019-05-01T12:27:37.263Z,14.67
2019-05-01T12:30:08.234Z,15.47
2019-05-01T12:32:37.586Z,15.23
2019-05-01T12:35:07.613Z,14.93
2019-05-01T12:37:40.978Z,15.43
2019-05-01T12:40:12.923Z,16.10
2019-05-01T12:42:42.224Z,15.50
2019-05-01T12:45:13.198Z,14.83
2019-05-01T12:48:02.344Z,16.00
2019-05-01T12:50:31.737Z,14.37
2019-05-01T12:53:13.314Z,16.07
2019-05-01T12:56:13.890Z,14.83
2019-05-01T12:58:48.787Z,14.73
2019-05-01T13:01:18.222Z,15.23
2019-05-01T13:03:47.542Z,15.03
2019-05-01T13:06:16.853Z,15.10
2019-05-01T13:08:46.169Z,15.83
2019-05-01T13:11:15.506Z,15.27
2019-05-01T13:13:44.826Z,14.93
2019-05-01T13:16:14.123Z,15.27
2019-05-01T13:18:43.475Z,16.00
2019-05-01T13:21:12.821Z,15.23
2019-05-01T13:23:42.163Z,16.33
2019-05-01T13:26:19.032Z,16.17
2019-05-01T13:29:00.269Z,16.63
2019-05-01T13:32:00.744Z,15.10
2019-05-01T13:34:30.040Z,16.90
2019-05-01T13:37:03.015Z,14.70
2019-05-01T13:39:30.453Z,15.63
2019-05-01T13:42:00.729Z,14.57
2019-05-01T13:44:30.044Z,16.70
2019-05-01T13:46:59.488Z,15.87
2019-05-01T13:49:28.784Z,16.37
2019-05-01T13:51:58.141Z,14.23
2019-05-01T13:54:27.606Z,13.07
2019-05-01T13:56:56.904Z,13.80
2019-05-01T13:59:26.245Z,13.47
2019-05-01T14:01:55.585Z,14.07
2019-05-01T14:04:26.556Z,13.70
2019-05-01T14:06:55.846Z,14.20
2019-05-01T14:09:29.216Z,13.53
2019-05-01T14:11:58.529Z,15.13
2019-05-01T14:14:27.869Z,13.93
2019-05-01T14:16:57.197Z,13.90
2019-05-01T14:19:26.542Z,13.93
2019-05-01T14:22:13.564Z,15.30
2019-05-01T14:24:46.618Z,14.03
2019-05-01T14:27:15.987Z,17.40
2019-05-01T14:29:45.269Z,14.53
2019-05-01T14:32:14.635Z,13.53
2019-05-01T14:34:43.934Z,14.40
2019-05-01T14:37:13.274Z,14.47
2019-05-01T14:39:42.561Z,15.07
2019-05-01T14:42:11.893Z,14.50
2019-05-01T14:44:41.244Z,14.20
2019-05-01T14:47:10.544Z,13.00
2019-05-01T14:49:39.885Z,13.83
2019-05-01T14:52:09.405Z,14.03
2019-05-01T14:54:38.705Z,13.83
2019-05-01T14:57:07.986Z,13.20
2019-05-01T14:59:37.330Z,13.93
2019-05-01T15:02:06.639Z,14.27
2019-05-01T15:04:35.981Z,17.80
2019-05-01T15:07:05.808Z,19.27
2019-05-01T15:09:35.161Z,13.43
2019-05-01T15:12:06.745Z,13.87
2019-05-01T15:14:53.707Z,13.37
2019-05-01T15:17:37.819Z,13.77
2019-05-01T15:20:09.075Z,12.90
2019-05-01T15:22:38.437Z,12.37
2019-05-01T15:25:08.398Z,13.40
2019-05-01T15:27:37.854Z,13.30
2019-05-01T15:30:07.722Z,13.27
2019-05-01T15:32:37.027Z,13.97
2019-05-01T15:35:07.197Z,16.20
2019-05-01T15:37:36.614Z,13.73
2019-05-01T15:40:44.193Z,14.83
2019-05-01T15:43:35.562Z,14.63
2019-05-01T15:46:04.873Z,14.70
2019-05-01T15:48:34.161Z,14.57
2019-05-01T15:51:03.513Z,15.37
2019-05-01T15:53:32.805Z,16.30
2019-05-01T15:56:02.416Z,14.70
2019-05-01T15:58:31.767Z,13.43
2019-05-01T16:01:01.112Z,15.17
2019-05-01T16:03:30.433Z,14.73
2019-05-01T16:05:59.776Z,13.63
2019-05-01T16:08:29.137Z,14.00
2019-05-01T16:11:10.523Z,15.17
2019-05-01T16:13:39.905Z,14.70
2019-05-01T16:16:09.494Z,14.90
2019-05-01T16:18:38.789Z,14.60
2019-05-01T16:21:08.114Z,15.03
2019-05-01T16:23:37.433Z,14.47
2019-05-01T16:26:09.563Z,14.80
2019-05-01T16:28:37.825Z,14.50
2019-05-01T16:31:07.204Z,15.00
2019-05-01T16:33:36.554Z,14.77
2019-05-01T16:36:06.297Z,14.37
2019-05-01T16:38:54.532Z,14.53
2019-05-01T16:41:24.673Z,14.13
2019-05-01T16:43:53.969Z,14.87
2019-05-01T16:46:23.289Z,14.73
2019-05-01T16:48:52.645Z,15.07
2019-05-01T16:51:21.949Z,16.40
2019-05-01T16:53:51.289Z,16.27
2019-05-01T16:56:20.618Z,16.30
2019-05-01T16:58:49.961Z,15.43
2019-05-01T17:01:38.901Z,14.70
2019-05-01T17:04:21.484Z,13.90
2019-05-01T17:06:58.753Z,14.83
2019-05-01T17:09:46.142Z,13.33
2019-05-01T17:12:17.656Z,13.50
2019-05-01T17:14:46.997Z,13.67
2019-05-01T17:17:18.911Z,14.03
2019-05-01T17:19:48.433Z,15.27
2019-05-01T17:22:17.769Z,13.70
2019-05-01T17:24:47.108Z,14.70
2019-05-01T17:27:16.401Z,13.80
2019-05-01T17:29:45.737Z,13.87
2019-05-01T17:32:16.672Z,14.53
2019-05-01T17:34:46.023Z,14.07
2019-05-01T17:37:15.322Z,14.37
2019-05-01T17:39:44.618Z,14.30
2019-05-01T17:42:13.952Z,14.10
2019-05-01T17:44:43.483Z,14.93
2019-05-01T17:47:12.869Z,20.70
2019-05-01T17:49:44.864Z,14.77
2019-05-01T17:52:13.310Z,13.50
2019-05-01T17:54:44.016Z,17.70
2019-05-01T17:57:13.348Z,21.30
2019-05-01T17:59:43.545Z,18.17
2019-05-01T18:02:31.838Z,18.80
2019-05-01T18:05:20.149Z,19.00
2019-05-01T18:07:49.509Z,18.80
2019-05-01T18:10:18.820Z,19.13
2019-05-01T18:12:48.148Z,18.00
2019-05-01T18:15:17.805Z,18.90
2019-05-01T18:17:47.098Z,18.93
2019-05-01T18:20:16.829Z,18.80
2019-05-01T18:23:23.259Z,19.23
2019-05-01T18:25:56.669Z,19.57
2019-05-01T18:28:34.509Z,19.63
2019-05-01T18:31:06.069Z,19.87
2019-05-01T18:33:35.429Z,19.03
2019-05-01T18:36:05.829Z,19.57
2019-05-01T18:38:50.606Z,19.67
2019-05-01T18:41:39.259Z,20.93
2019-05-01T18:44:10.179Z,20.70
2019-05-01T18:46:39.649Z,22.83
2019-05-01T18:49:09.071Z,21.20
2019-05-01T18:51:40.732Z,20.30
2019-05-01T18:54:09.482Z,20.27
2019-05-01T18:56:39.572Z,21.53
2019-05-01T18:59:09.376Z,20.20
2019-05-01T19:01:38.882Z,21.00
2019-05-01T19:04:08.217Z,20.13
2019-05-01T19:06:41.270Z,20.67
2019-05-01T19:09:15.180Z,19.77
2019-05-01T19:11:40.881Z,19.63
2019-05-01T19:14:11.305Z,20.53
2019-05-01T19:16:45.212Z,19.63
2019-05-01T19:19:11.725Z,22.70
2019-05-01T19:21:41.751Z,19.93
2019-05-01T19:24:13.070Z,21.13
2019-05-01T19:26:43.032Z,20.97
2019-05-01T19:29:13.509Z,19.77
2019-05-01T19:31:42.872Z,20.77
2019-05-01T19:34:12.659Z,20.77
2019-05-01T19:36:45.111Z,21.13
2019-05-01T19:39:13.249Z,19.27
2019-05-01T19:41:43.512Z,19.87
2019-05-01T19:44:18.725Z,29.47
2019-05-01T19:46:46.244Z,29.27
2019-05-01T19:49:15.716Z,20.60
2019-05-01T19:51:45.576Z,20.33
2019-05-01T19:54:15.039Z,20.03
2019-05-01T19:56:44.684Z,19.07
2019-05-01T19:59:19.612Z,18.67
2019-05-01T20:01:49.928Z,22.13
2019-05-01T20:04:20.415Z,17.07
2019-05-01T20:06:51.218Z,18.10
2019-05-01T20:09:27.222Z,16.27
2019-05-01T20:12:06.173Z,17.20
2019-05-01T20:14:36.224Z,17.57
2019-05-01T20:17:10.461Z,16.60
2019-05-01T20:19:41.670Z,16.07
2019-05-01T20:22:11.696Z,16.23
2019-05-01T20:24:44.295Z,15.37
2019-05-01T20:27:14.836Z,16.73
2019-05-01T20:29:47.185Z,18.33
2019-05-01T20:32:21.044Z,17.37
2019-05-01T20:34:52.684Z,18.73
2019-05-01T20:37:23.958Z,19.50
2019-05-01T20:39:53.933Z,19.57
2019-05-01T20:42:23.339Z,22.27
2019-05-01T20:45:03.960Z,21.33
2019-05-01T20:47:34.969Z,20.40
2019-05-01T20:49:54.864Z,21.90
2019-05-01T20:52:24.249Z,22.77
2019-05-01T20:54:53.629Z,25.40
2019-05-01T20:57:28.545Z,22.47
2019-05-01T20:59:57.922Z,22.03
2019-05-01T21:02:27.241Z,23.17
2019-05-01T21:05:16.131Z,24.00
2019-05-01T21:08:13.533Z,24.90
2019-05-01T21:10:51.086Z,23.90
2019-05-01T21:13:23.060Z,24.20
2019-05-01T21:15:56.342Z,24.20
2019-05-01T21:18:26.085Z,23.37
2019-05-01T21:20:54.221Z,25.73
2019-05-01T21:23:24.397Z,26.43
2019-05-01T21:25:53.908Z,28.43
2019-05-01T21:28:24.097Z,25.47
2019-05-01T21:30:54.336Z,27.63
2019-05-01T21:33:24.325Z,24.03
2019-05-01T21:35:53.697Z,25.23
2019-05-01T21:38:23.056Z,24.67
2019-05-01T21:40:53.848Z,25.67
2019-05-01T21:43:23.604Z,25.17
2019-05-01T21:45:53.945Z,27.80
2019-05-01T21:48:23.301Z,27.43
2019-05-01T21:50:53.720Z,26.67
2019-05-01T21:53:23.972Z,27.93
2019-05-01T21:55:53.334Z,27.37
2019-05-01T21:58:28.216Z,27.30
2019-05-01T22:00:55.185Z,27.23
2019-05-01T22:03:24.989Z,28.63
2019-05-01T22:05:54.272Z,28.70
2019-05-01T22:08:23.907Z,29.13
2019-05-01T22:10:53.185Z,28.43
2019-05-01T22:13:24.238Z,28.30
2019-05-01T22:15:58.361Z,28.10
2019-05-01T22:18:39.600Z,29.87
2019-05-01T22:21:23.449Z,28.23
2019-05-01T22:24:17.494Z,28.27
2019-05-01T22:26:55.094Z,29.77
2019-05-01T22:29:27.220Z,28.67
2019-05-01T22:32:05.938Z,30.47
2019-05-01T22:34:43.294Z,26.30
2019-05-01T22:37:12.582Z,27.80
2019-05-01T22:39:43.849Z,25.90
2019-05-01T22:42:13.885Z,27.23
2019-05-01T22:44:43.210Z,27.23
2019-05-01T22:47:15.006Z,25.80
2019-05-01T22:49:43.661Z,26.57
2019-05-01T22:52:13.000Z,26.00
2019-05-01T22:54:44.940Z,26.33
2019-05-01T22:57:14.072Z,25.80
2019-05-01T22:59:43.361Z,26.83
2019-05-01T23:02:28.262Z,27.73
2019-05-01T23:04:55.354Z,26.83
2019-05-01T23:07:24.701Z,28.33
2019-05-01T23:09:54.035Z,28.97
2019-05-01T23:12:23.340Z,28.97
2019-05-01T23:14:52.693Z,28.90
2019-05-01T23:17:39.530Z,27.53
2019-05-01T23:20:10.452Z,27.03
2019-05-01T23:22:39.746Z,26.33
2019-05-01T23:25:09.880Z,28.23
2019-05-01T23:27:39.169Z,30.53
2019-05-01T23:30:10.209Z,26.97
2019-05-01T23:32:39.505Z,27.07
2019-05-01T23:35:11.024Z,28.20
2019-05-01T23:37:40.355Z,27.43
2019-05-01T23:40:10.952Z,30.07
2019-05-01T23:42:43.246Z,28.67
2019-05-01T23:45:12.989Z,27.00
2019-05-01T23:47:43.813Z,29.57
2019-05-01T23:50:14.458Z,26.80
2019-05-01T23:52:43.813Z,27.83
2019-05-01T23:55:13.114Z,26.80
2019-05-01T23:57:42.424Z,26.57
